Cognac-Châteaubernard (BA 709) Air Base

LFBG · Charente, Nouvelle-Aquitaine, 法国

罗盘
风向 的 风向 050° Cognac-Châteaubernard (BA 709) Air Base 5/23
风: 8 kt, 3 beaufort

8 kt

改变
0 1.000 2.000 3.000 4.000 5.000
BKN 1.900 ft
BKN 3.000 ft
OVC 3.700 ft
METAR LFBD 021300Z AUTO 05008KT 9999 BKN019 BKN030 OVC037 07/03 Q1017 NOSIG

METAR Cognac-Châteaubernard (BA 709) Air Base - LFBG/CNG

Cognac-Châteaubernard (BA 709) Air Base是,法国中的中型机场。 该机场有2条跑道: 5/23 和 8/26. 该领域的国际民航组织标志是LFBG 它的国际航空运输协会代码是CNG.

这份报告是针对2022年12月2日 14:00, 当地时间在Bordeaux-Mérignac Airport进行的。

机场观察

风向为050°,速度为8 kt。

可见度为10 km 或者更多。

有碎云在1.900 ft的高度, 碎云在3.000 ft的高度 和 乌云密布在3.700 ft的高度。 破损或更高的上限为1.900 ft。

温度为7 °C,阵风为3 °C。 露点为3 °C,相对湿度为76%。 海平面上的气压为1017 hPa (QNH)。

白天

今天,太阳从08:22升起,在17:18降落。 这适用于Cognac-Châteaubernard (BA 709) Air Base,世界夏令时可能有所不同。 当地时间与世界标准时间之间的时差为+1 小时。 当前,没有夏令时有效。

公司介绍

在这个机场,你可以找到飞行俱乐部。 本场上唯一已知的公司是Les Ailes Cognaçaises。

体会

到Vliegles.nl去找飞行课程,跳伞和其他飞行体验。 浏览页面,了解Cognac-Châteaubernard (BA 709) Air Base附近所有可用的活动。 你也可以使用搜索功能来寻找你所在地附近的特定飞行课程、跳伞或其他飞行体验。

跑道

Id 标题 侧风 逆风 侧风 %
5/23 050°-230° 8 kt 0 %
8/26 080°-260° 4 kt 7 kt 50 %

逆风成分最大的方向会被突出显示,并用于横风计算。 这并不一定意味着这个方向在使用。

乌云

1.900 ft BKN 碎云
3.000 ft BKN 碎云
3.700 ft OVC 乌云密布

温度 & 天气

温度 7 °C
露点 3 °C
相对湿度 76%
风寒 3 °C
Kp-index 2 (0-9)

白天

日出
08:21
中午
12:52
日落
17:23 (2:55)

小工具

你想在你的网站上有一个关于Cognac-Châteaubernard (BA 709) Air Base的当前航空天气(METAR)的小部件吗?

显示HTML代码

我们和第三方通过cookies跟踪您在我们网站上的互联网行为。如果你继续,我们认为你同意我们的饼干政策